Terminal Aerodrome Forecast
Issued by NWS

Home | Current Version | Previous Version | Text Only | Print | Product List | Glossary On
Versions: 1 2 3 4 5 6 7 8 9 10 11 12 13 14 15 16 17 18 19 20 21 22 23 24 25 26 27 28 29 30 31 32
000
FTUS43 KDMX 060908 AAA
TAFOTM
TAF AMD
KOTM 060908Z 0609/0706 16010KT P6SM BKN150
     FM061700 17013G22KT P6SM SCT035 BKN120
     FM070100 28010KT P6SM VCTS BKN025CB=

USA.gov is the U.S. government's official web portal to all federal, state and local government web resources and services.